sensor_id;sensor_type;location;lat;lon;timestamp;temperature;humidity
7720;DHT22;3902;49.474;8.616;2022-12-18T00:01:36;-2.90;99.90
7720;DHT22;3902;49.474;8.616;2022-12-18T00:04:04;-2.90;99.90
7720;DHT22;3902;49.474;8.616;2022-12-18T00:06:30;-2.90;99.90
7720;DHT22;3902;49.474;8.616;2022-12-18T00:08:57;-2.90;99.90
7720;DHT22;3902;49.474;8.616;2022-12-18T00:11:26;-2.90;99.90
7720;DHT22;3902;49.474;8.616;2022-12-18T00:13:53;-2.90;99.90
7720;DHT22;3902;49.474;8.616;2022-12-18T00:16:22;-2.90;99.90
7720;DHT22;3902;49.474;8.616;2022-12-18T00:18:49;-2.90;99.90
7720;DHT22;3902;49.474;8.616;2022-12-18T00:21:15;-3.00;99.90
7720;DHT22;3902;49.474;8.616;2022-12-18T00:23:42;-3.10;99.90
7720;DHT22;3902;49.474;8.616;2022-12-18T00:26:14;-3.10;99.90
7720;DHT22;3902;49.474;8.616;2022-12-18T00:28:41;-3.10;99.90
7720;DHT22;3902;49.474;8.616;2022-12-18T00:31:16;-3.00;99.90
7720;DHT22;3902;49.474;8.616;2022-12-18T00:33:42;-3.00;99.90
7720;DHT22;3902;49.474;8.616;2022-12-18T00:36:16;-3.00;99.90
7720;DHT22;3902;49.474;8.616;2022-12-18T00:38:43;-3.00;99.90
7720;DHT22;3902;49.474;8.616;2022-12-18T00:41:11;-3.00;99.90
7720;DHT22;3902;49.474;8.616;2022-12-18T00:43:37;-3.00;99.90
7720;DHT22;3902;49.474;8.616;2022-12-18T00:46:03;-3.00;99.90
7720;DHT22;3902;49.474;8.616;2022-12-18T00:48:29;-3.00;99.90
7720;DHT22;3902;49.474;8.616;2022-12-18T00:50:54;-3.00;99.90
7720;DHT22;3902;49.474;8.616;2022-12-18T00:53:20;-3.00;99.90
7720;DHT22;3902;49.474;8.616;2022-12-18T00:55:46;-3.10;99.90
7720;DHT22;3902;49.474;8.616;2022-12-18T00:58:13;-3.00;99.90
7720;DHT22;3902;49.474;8.616;2022-12-18T01:00:39;-3.00;99.90
7720;DHT22;3902;49.474;8.616;2022-12-18T01:03:05;-3.00;99.90
7720;DHT22;3902;49.474;8.616;2022-12-18T01:05:31;-3.10;99.90
7720;DHT22;3902;49.474;8.616;2022-12-18T01:07:56;-3.10;99.90
7720;DHT22;3902;49.474;8.616;2022-12-18T01:10:23;-3.10;99.90
7720;DHT22;3902;49.474;8.616;2022-12-18T01:12:49;-3.10;99.90
7720;DHT22;3902;49.474;8.616;2022-12-18T01:15:15;-3.10;99.90
7720;DHT22;3902;49.474;8.616;2022-12-18T01:17:42;-3.20;99.90
7720;DHT22;3902;49.474;8.616;2022-12-18T01:20:09;-3.10;99.90
7720;DHT22;3902;49.474;8.616;2022-12-18T01:22:35;-3.20;99.90
7720;DHT22;3902;49.474;8.616;2022-12-18T01:25:01;-3.20;99.90
7720;DHT22;3902;49.474;8.616;2022-12-18T01:27:27;-3.20;99.90
7720;DHT22;3902;49.474;8.616;2022-12-18T01:29:53;-3.20;99.90
7720;DHT22;3902;49.474;8.616;2022-12-18T01:32:19;-3.20;99.90
7720;DHT22;3902;49.474;8.616;2022-12-18T01:34:44;-3.20;99.90
7720;DHT22;3902;49.474;8.616;2022-12-18T01:37:10;-3.40;99.90
7720;DHT22;3902;49.474;8.616;2022-12-18T01:39:36;-3.30;99.90
7720;DHT22;3902;49.474;8.616;2022-12-18T01:42:12;-3.30;99.90
7720;DHT22;3902;49.474;8.616;2022-12-18T01:47:39;-3.30;99.90
7720;DHT22;3902;49.474;8.616;2022-12-18T01:50:08;-3.30;99.90
7720;DHT22;3902;49.474;8.616;2022-12-18T01:52:34;-3.40;99.90
7720;DHT22;3902;49.474;8.616;2022-12-18T01:55:02;-3.40;99.90
7720;DHT22;3902;49.474;8.616;2022-12-18T01:57:29;-3.40;99.90
7720;DHT22;3902;49.474;8.616;2022-12-18T01:59:59;-3.40;99.90
7720;DHT22;3902;49.474;8.616;2022-12-18T02:02:27;-3.40;99.90
7720;DHT22;3902;49.474;8.616;2022-12-18T02:04:54;-3.50;99.90
7720;DHT22;3902;49.474;8.616;2022-12-18T02:07:32;-3.40;99.90
7720;DHT22;3902;49.474;8.616;2022-12-18T02:10:27;-3.40;99.90
7720;DHT22;3902;49.474;8.616;2022-12-18T02:13:23;-3.40;99.90
7720;DHT22;3902;49.474;8.616;2022-12-18T02:16:03;-3.40;99.90
7720;DHT22;3902;49.474;8.616;2022-12-18T02:18:35;-3.40;99.90
7720;DHT22;3902;49.474;8.616;2022-12-18T02:24:09;-3.40;99.90
7720;DHT22;3902;49.474;8.616;2022-12-18T02:26:46;-3.40;99.90
7720;DHT22;3902;49.474;8.616;2022-12-18T02:29:20;-3.40;99.90
7720;DHT22;3902;49.474;8.616;2022-12-18T02:31:55;-3.40;99.90
7720;DHT22;3902;49.474;8.616;2022-12-18T02:34:25;-3.40;99.90
7720;DHT22;3902;49.474;8.616;2022-12-18T02:36:53;-3.40;99.90
7720;DHT22;3902;49.474;8.616;2022-12-18T02:39:21;-3.40;99.90
7720;DHT22;3902;49.474;8.616;2022-12-18T02:41:49;-3.40;99.90
7720;DHT22;3902;49.474;8.616;2022-12-18T02:44:15;-3.50;99.90
7720;DHT22;3902;49.474;8.616;2022-12-18T02:46:46;-3.50;99.90
7720;DHT22;3902;49.474;8.616;2022-12-18T02:52:29;-3.50;99.90
7720;DHT22;3902;49.474;8.616;2022-12-18T02:55:17;-3.50;99.90
7720;DHT22;3902;49.474;8.616;2022-12-18T02:57:54;-3.50;99.90
7720;DHT22;3902;49.474;8.616;2022-12-18T03:00:24;-3.40;99.90
7720;DHT22;3902;49.474;8.616;2022-12-18T03:02:59;-3.50;99.90
7720;DHT22;3902;49.474;8.616;2022-12-18T03:05:31;-3.50;99.90
7720;DHT22;3902;49.474;8.616;2022-12-18T03:08:06;-3.50;99.90
7720;DHT22;3902;49.474;8.616;2022-12-18T03:10:38;-3.50;99.90
7720;DHT22;3902;49.474;8.616;2022-12-18T03:13:07;-3.60;99.90
7720;DHT22;3902;49.474;8.616;2022-12-18T03:15:42;-3.60;99.90
7720;DHT22;3902;49.474;8.616;2022-12-18T03:18:19;-3.80;99.90
7720;DHT22;3902;49.474;8.616;2022-12-18T03:20:47;-3.80;99.90
7720;DHT22;3902;49.474;8.616;2022-12-18T03:23:16;-3.90;99.90
7720;DHT22;3902;49.474;8.616;2022-12-18T03:25:44;-3.90;99.90
7720;DHT22;3902;49.474;8.616;2022-12-18T03:28:19;-3.80;99.90
7720;DHT22;3902;49.474;8.616;2022-12-18T03:30:47;-3.80;99.90
7720;DHT22;3902;49.474;8.616;2022-12-18T03:33:51;-3.80;99.90
7720;DHT22;3902;49.474;8.616;2022-12-18T03:36:11;-3.80;99.90
7720;DHT22;3902;49.474;8.616;2022-12-18T03:38:37;-3.80;99.90
7720;DHT22;3902;49.474;8.616;2022-12-18T03:41:26;-3.70;99.90
7720;DHT22;3902;49.474;8.616;2022-12-18T03:46:39;-3.70;99.90
7720;DHT22;3902;49.474;8.616;2022-12-18T03:49:13;-3.70;99.90
7720;DHT22;3902;49.474;8.616;2022-12-18T03:52:01;-3.70;99.90
7720;DHT22;3902;49.474;8.616;2022-12-18T03:54:29;-3.70;99.90
7720;DHT22;3902;49.474;8.616;2022-12-18T03:57:02;-3.60;99.90
7720;DHT22;3902;49.474;8.616;2022-12-18T03:59:29;-3.60;99.90
7720;DHT22;3902;49.474;8.616;2022-12-18T04:01:57;-3.60;99.90
7720;DHT22;3902;49.474;8.616;2022-12-18T04:04:24;-3.70;99.90
7720;DHT22;3902;49.474;8.616;2022-12-18T04:06:50;-3.60;99.90
7720;DHT22;3902;49.474;8.616;2022-12-18T04:09:17;-3.70;99.90
7720;DHT22;3902;49.474;8.616;2022-12-18T04:11:43;-4.00;99.90
7720;DHT22;3902;49.474;8.616;2022-12-18T04:14:11;-4.00;99.90
7720;DHT22;3902;49.474;8.616;2022-12-18T04:16:37;-4.00;99.90
7720;DHT22;3902;49.474;8.616;2022-12-18T04:19:03;-4.20;99.90
7720;DHT22;3902;49.474;8.616;2022-12-18T04:21:29;-4.10;99.90
7720;DHT22;3902;49.474;8.616;2022-12-18T04:23:54;-4.00;99.90
7720;DHT22;3902;49.474;8.616;2022-12-18T04:26:19;-3.90;99.90
7720;DHT22;3902;49.474;8.616;2022-12-18T04:28:45;-3.90;99.90
7720;DHT22;3902;49.474;8.616;2022-12-18T04:31:11;-3.90;99.90
7720;DHT22;3902;49.474;8.616;2022-12-18T04:33:36;-3.90;99.90
7720;DHT22;3902;49.474;8.616;2022-12-18T04:36:02;-3.90;99.90
7720;DHT22;3902;49.474;8.616;2022-12-18T04:38:28;-3.80;99.90
7720;DHT22;3902;49.474;8.616;2022-12-18T04:40:53;-3.90;99.90
7720;DHT22;3902;49.474;8.616;2022-12-18T04:43:19;-3.90;99.90
7720;DHT22;3902;49.474;8.616;2022-12-18T04:45:44;-3.80;99.90
7720;DHT22;3902;49.474;8.616;2022-12-18T04:48:10;-3.90;99.90
7720;DHT22;3902;49.474;8.616;2022-12-18T04:50:35;-3.90;99.90
7720;DHT22;3902;49.474;8.616;2022-12-18T04:53:01;-3.80;99.90
7720;DHT22;3902;49.474;8.616;2022-12-18T04:55:27;-3.80;99.90
7720;DHT22;3902;49.474;8.616;2022-12-18T04:57:53;-3.80;99.90
7720;DHT22;3902;49.474;8.616;2022-12-18T05:00:19;-3.80;99.90
7720;DHT22;3902;49.474;8.616;2022-12-18T05:02:45;-3.80;99.90
7720;DHT22;3902;49.474;8.616;2022-12-18T05:05:10;-3.80;99.90
7720;DHT22;3902;49.474;8.616;2022-12-18T05:07:36;-3.90;99.90
7720;DHT22;3902;49.474;8.616;2022-12-18T05:10:02;-3.90;99.90
7720;DHT22;3902;49.474;8.616;2022-12-18T05:12:27;-3.90;99.90
7720;DHT22;3902;49.474;8.616;2022-12-18T05:14:53;-3.90;99.90
7720;DHT22;3902;49.474;8.616;2022-12-18T05:17:18;-3.90;99.90
7720;DHT22;3902;49.474;8.616;2022-12-18T05:19:44;-3.90;99.90
7720;DHT22;3902;49.474;8.616;2022-12-18T05:22:10;-3.90;99.90
7720;DHT22;3902;49.474;8.616;2022-12-18T05:24:35;-3.90;99.90
7720;DHT22;3902;49.474;8.616;2022-12-18T05:27:01;-3.90;99.90
7720;DHT22;3902;49.474;8.616;2022-12-18T05:29:26;-3.90;99.90
7720;DHT22;3902;49.474;8.616;2022-12-18T05:31:52;-3.90;99.90
7720;DHT22;3902;49.474;8.616;2022-12-18T05:34:17;-3.90;99.90
7720;DHT22;3902;49.474;8.616;2022-12-18T05:36:43;-3.90;99.90
7720;DHT22;3902;49.474;8.616;2022-12-18T05:39:08;-3.90;99.90
7720;DHT22;3902;49.474;8.616;2022-12-18T05:41:34;-3.90;99.90
7720;DHT22;3902;49.474;8.616;2022-12-18T05:44:00;-3.90;99.90
7720;DHT22;3902;49.474;8.616;2022-12-18T05:46:26;-3.90;99.90
7720;DHT22;3902;49.474;8.616;2022-12-18T05:48:51;-3.90;99.90
7720;DHT22;3902;49.474;8.616;2022-12-18T05:51:19;-3.90;99.90
7720;DHT22;3902;49.474;8.616;2022-12-18T05:53:45;-3.90;99.90
7720;DHT22;3902;49.474;8.616;2022-12-18T05:56:18;-4.00;99.90
7720;DHT22;3902;49.474;8.616;2022-12-18T05:58:43;-4.00;99.90
7720;DHT22;3902;49.474;8.616;2022-12-18T06:01:15;-4.00;99.90
7720;DHT22;3902;49.474;8.616;2022-12-18T06:03:42;-4.00;99.90
7720;DHT22;3902;49.474;8.616;2022-12-18T06:08:43;-3.90;99.90
7720;DHT22;3902;49.474;8.616;2022-12-18T06:11:09;-3.90;99.90
7720;DHT22;3902;49.474;8.616;2022-12-18T06:13:35;-4.00;99.90
7720;DHT22;3902;49.474;8.616;2022-12-18T06:16:04;-3.90;99.90
7720;DHT22;3902;49.474;8.616;2022-12-18T06:18:30;-3.90;99.90
7720;DHT22;3902;49.474;8.616;2022-12-18T06:20:57;-3.90;99.90
7720;DHT22;3902;49.474;8.616;2022-12-18T06:23:23;-3.90;99.90
7720;DHT22;3902;49.474;8.616;2022-12-18T06:25:49;-4.00;99.90
7720;DHT22;3902;49.474;8.616;2022-12-18T06:28:14;-4.10;99.90
7720;DHT22;3902;49.474;8.616;2022-12-18T06:30:43;-4.00;99.90
7720;DHT22;3902;49.474;8.616;2022-12-18T06:33:09;-4.00;99.90
7720;DHT22;3902;49.474;8.616;2022-12-18T06:35:34;-4.00;99.90
7720;DHT22;3902;49.474;8.616;2022-12-18T06:38:01;-4.10;99.90
7720;DHT22;3902;49.474;8.616;2022-12-18T06:40:26;-4.10;99.90
7720;DHT22;3902;49.474;8.616;2022-12-18T06:42:52;-4.10;99.90
7720;DHT22;3902;49.474;8.616;2022-12-18T06:45:17;-4.10;99.90
7720;DHT22;3902;49.474;8.616;2022-12-18T06:47:43;-4.10;99.90
7720;DHT22;3902;49.474;8.616;2022-12-18T06:50:09;-4.10;99.90
7720;DHT22;3902;49.474;8.616;2022-12-18T06:52:34;-4.10;99.90
7720;DHT22;3902;49.474;8.616;2022-12-18T06:55:00;-4.10;99.90
7720;DHT22;3902;49.474;8.616;2022-12-18T06:57:26;-4.10;99.90
7720;DHT22;3902;49.474;8.616;2022-12-18T06:59:51;-4.10;99.90
7720;DHT22;3902;49.474;8.616;2022-12-18T07:02:17;-4.10;99.90
7720;DHT22;3902;49.474;8.616;2022-12-18T07:04:42;-4.10;99.90
7720;DHT22;3902;49.474;8.616;2022-12-18T07:07:08;-4.00;99.90
7720;DHT22;3902;49.474;8.616;2022-12-18T07:09:34;-4.00;99.90
7720;DHT22;3902;49.474;8.616;2022-12-18T07:11:59;-4.10;99.90
7720;DHT22;3902;49.474;8.616;2022-12-18T07:14:25;-4.00;99.90
7720;DHT22;3902;49.474;8.616;2022-12-18T07:16:50;-4.00;99.90
7720;DHT22;3902;49.474;8.616;2022-12-18T07:19:16;-4.10;99.90
7720;DHT22;3902;49.474;8.616;2022-12-18T07:21:41;-4.10;99.90
7720;DHT22;3902;49.474;8.616;2022-12-18T07:24:07;-4.00;99.90
7720;DHT22;3902;49.474;8.616;2022-12-18T07:26:32;-4.10;99.90
7720;DHT22;3902;49.474;8.616;2022-12-18T07:28:58;-4.00;99.90
7720;DHT22;3902;49.474;8.616;2022-12-18T07:31:25;-4.00;99.90
7720;DHT22;3902;49.474;8.616;2022-12-18T07:33:51;-4.00;99.90
7720;DHT22;3902;49.474;8.616;2022-12-18T07:36:17;-4.00;99.90
7720;DHT22;3902;49.474;8.616;2022-12-18T07:38:43;-4.00;99.90
7720;DHT22;3902;49.474;8.616;2022-12-18T07:41:13;-4.00;99.90
7720;DHT22;3902;49.474;8.616;2022-12-18T07:43:40;-4.10;99.90
7720;DHT22;3902;49.474;8.616;2022-12-18T07:46:07;-4.10;99.90
7720;DHT22;3902;49.474;8.616;2022-12-18T07:48:33;-4.10;99.90
7720;DHT22;3902;49.474;8.616;2022-12-18T07:50:59;-4.10;99.90
7720;DHT22;3902;49.474;8.616;2022-12-18T07:53:25;-4.10;99.90
7720;DHT22;3902;49.474;8.616;2022-12-18T07:56:03;-4.20;99.90
7720;DHT22;3902;49.474;8.616;2022-12-18T07:58:29;-4.20;99.90
7720;DHT22;3902;49.474;8.616;2022-12-18T08:01:01;-4.10;99.90
7720;DHT22;3902;49.474;8.616;2022-12-18T08:03:27;-4.10;99.90
7720;DHT22;3902;49.474;8.616;2022-12-18T08:05:52;-4.10;99.90
7720;DHT22;3902;49.474;8.616;2022-12-18T08:08:23;-4.10;99.90
7720;DHT22;3902;49.474;8.616;2022-12-18T08:10:48;-4.00;99.90
7720;DHT22;3902;49.474;8.616;2022-12-18T08:13:14;-4.00;99.90
7720;DHT22;3902;49.474;8.616;2022-12-18T08:15:39;-4.00;99.90
7720;DHT22;3902;49.474;8.616;2022-12-18T08:18:05;-4.00;99.90
7720;DHT22;3902;49.474;8.616;2022-12-18T08:20:30;-4.00;99.90
7720;DHT22;3902;49.474;8.616;2022-12-18T08:22:56;-4.00;99.90
7720;DHT22;3902;49.474;8.616;2022-12-18T08:25:23;-4.00;99.90
7720;DHT22;3902;49.474;8.616;2022-12-18T08:27:49;-3.90;99.90
7720;DHT22;3902;49.474;8.616;2022-12-18T08:30:14;-3.90;99.90
7720;DHT22;3902;49.474;8.616;2022-12-18T08:32:40;-3.90;99.90
7720;DHT22;3902;49.474;8.616;2022-12-18T08:35:06;-3.90;99.90
7720;DHT22;3902;49.474;8.616;2022-12-18T08:37:33;-3.90;99.90
7720;DHT22;3902;49.474;8.616;2022-12-18T08:39:59;-3.90;99.90
7720;DHT22;3902;49.474;8.616;2022-12-18T08:42:24;-3.90;99.90
7720;DHT22;3902;49.474;8.616;2022-12-18T08:45:08;-3.90;99.90
7720;DHT22;3902;49.474;8.616;2022-12-18T08:47:34;-3.90;99.90
7720;DHT22;3902;49.474;8.616;2022-12-18T08:50:00;-3.80;99.90
7720;DHT22;3902;49.474;8.616;2022-12-18T08:52:25;-3.90;99.90
7720;DHT22;3902;49.474;8.616;2022-12-18T08:54:51;-3.80;99.90
7720;DHT22;3902;49.474;8.616;2022-12-18T08:57:16;-3.70;99.90
7720;DHT22;3902;49.474;8.616;2022-12-18T08:59:42;-3.70;99.90
7720;DHT22;3902;49.474;8.616;2022-12-18T09:02:10;-3.70;99.90
7720;DHT22;3902;49.474;8.616;2022-12-18T09:04:36;-3.70;99.90
7720;DHT22;3902;49.474;8.616;2022-12-18T09:07:01;-3.60;99.90
7720;DHT22;3902;49.474;8.616;2022-12-18T09:09:27;-3.60;99.90
7720;DHT22;3902;49.474;8.616;2022-12-18T09:11:52;-3.60;99.90
7720;DHT22;3902;49.474;8.616;2022-12-18T09:14:18;-3.70;99.90
7720;DHT22;3902;49.474;8.616;2022-12-18T09:16:43;-3.60;99.90
7720;DHT22;3902;49.474;8.616;2022-12-18T09:19:09;-3.60;99.90
7720;DHT22;3902;49.474;8.616;2022-12-18T09:21:38;-3.60;99.90
7720;DHT22;3902;49.474;8.616;2022-12-18T09:24:05;-3.50;99.90
7720;DHT22;3902;49.474;8.616;2022-12-18T09:26:31;-3.40;99.90
7720;DHT22;3902;49.474;8.616;2022-12-18T09:28:56;-3.40;99.90
7720;DHT22;3902;49.474;8.616;2022-12-18T09:31:23;-3.30;99.90
7720;DHT22;3902;49.474;8.616;2022-12-18T09:33:50;-3.30;99.90
7720;DHT22;3902;49.474;8.616;2022-12-18T09:36:17;-3.30;99.90
7720;DHT22;3902;49.474;8.616;2022-12-18T09:38:43;-3.20;99.90
7720;DHT22;3902;49.474;8.616;2022-12-18T09:41:36;-3.20;99.90
7720;DHT22;3902;49.474;8.616;2022-12-18T09:44:36;-3.20;99.90
7720;DHT22;3902;49.474;8.616;2022-12-18T09:47:20;-3.10;99.90
7720;DHT22;3902;49.474;8.616;2022-12-18T09:49:52;-3.00;99.90
7720;DHT22;3902;49.474;8.616;2022-12-18T09:52:35;-3.00;99.90
7720;DHT22;3902;49.474;8.616;2022-12-18T09:55:14;-3.00;99.90
7720;DHT22;3902;49.474;8.616;2022-12-18T09:57:47;-2.90;99.90
7720;DHT22;3902;49.474;8.616;2022-12-18T10:00:23;-2.90;99.90
7720;DHT22;3902;49.474;8.616;2022-12-18T10:03:08;-2.90;99.90
7720;DHT22;3902;49.474;8.616;2022-12-18T10:06:00;-2.80;99.90
7720;DHT22;3902;49.474;8.616;2022-12-18T10:08:49;-2.80;99.90
7720;DHT22;3902;49.474;8.616;2022-12-18T10:11:30;-2.70;99.90
7720;DHT22;3902;49.474;8.616;2022-12-18T10:22:07;-2.60;99.90
7720;DHT22;3902;49.474;8.616;2022-12-18T10:27:18;-2.50;99.90
7720;DHT22;3902;49.474;8.616;2022-12-18T10:29:44;-2.40;99.90
7720;DHT22;3902;49.474;8.616;2022-12-18T10:32:19;-2.40;99.90
7720;DHT22;3902;49.474;8.616;2022-12-18T10:34:46;-2.30;99.90
7720;DHT22;3902;49.474;8.616;2022-12-18T10:37:18;-2.30;99.90
7720;DHT22;3902;49.474;8.616;2022-12-18T10:39:44;-2.20;99.90
7720;DHT22;3902;49.474;8.616;2022-12-18T10:42:18;-2.10;99.90
7720;DHT22;3902;49.474;8.616;2022-12-18T10:44:44;-2.10;99.90
7720;DHT22;3902;49.474;8.616;2022-12-18T10:47:17;-2.00;99.90
7720;DHT22;3902;49.474;8.616;2022-12-18T10:49:52;-2.00;99.90
7720;DHT22;3902;49.474;8.616;2022-12-18T10:52:25;-1.90;99.90
7720;DHT22;3902;49.474;8.616;2022-12-18T10:55:03;-1.80;99.90
7720;DHT22;3902;49.474;8.616;2022-12-18T10:57:38;-1.80;99.90
7720;DHT22;3902;49.474;8.616;2022-12-18T11:02:48;-1.60;99.90
7720;DHT22;3902;49.474;8.616;2022-12-18T11:05:33;-1.50;99.90
7720;DHT22;3902;49.474;8.616;2022-12-18T11:08:00;-1.50;99.90
7720;DHT22;3902;49.474;8.616;2022-12-18T11:10:46;-1.40;99.90
7720;DHT22;3902;49.474;8.616;2022-12-18T11:13:21;-1.40;99.90
7720;DHT22;3902;49.474;8.616;2022-12-18T11:15:48;-1.30;99.90
7720;DHT22;3902;49.474;8.616;2022-12-18T11:18:25;-1.20;99.90
7720;DHT22;3902;49.474;8.616;2022-12-18T11:20:54;-0.80;99.90
7720;DHT22;3902;49.474;8.616;2022-12-18T11:23:21;-0.40;99.90
7720;DHT22;3902;49.474;8.616;2022-12-18T11:25:55;0.10;99.90
7720;DHT22;3902;49.474;8.616;2022-12-18T11:33:37;1.60;99.90
7720;DHT22;3902;49.474;8.616;2022-12-18T11:36:04;2.00;99.90
7720;DHT22;3902;49.474;8.616;2022-12-18T11:38:35;2.40;99.90
7720;DHT22;3902;49.474;8.616;2022-12-18T11:41:41;2.70;99.90
7720;DHT22;3902;49.474;8.616;2022-12-18T11:44:28;3.10;99.90
7720;DHT22;3902;49.474;8.616;2022-12-18T11:49:51;3.80;99.90
7720;DHT22;3902;49.474;8.616;2022-12-18T11:52:22;4.00;99.90
7720;DHT22;3902;49.474;8.616;2022-12-18T11:54:53;4.20;99.90
7720;DHT22;3902;49.474;8.616;2022-12-18T11:57:38;4.40;99.90
7720;DHT22;3902;49.474;8.616;2022-12-18T12:00:12;4.40;99.90
7720;DHT22;3902;49.474;8.616;2022-12-18T12:08:09;4.60;99.90
7720;DHT22;3902;49.474;8.616;2022-12-18T12:16:05;4.30;99.90
7720;DHT22;3902;49.474;8.616;2022-12-18T12:18:58;4.00;99.90
7720;DHT22;3902;49.474;8.616;2022-12-18T12:21:46;3.90;99.90
7720;DHT22;3902;49.474;8.616;2022-12-18T12:38:05;3.20;99.90
7720;DHT22;3902;49.474;8.616;2022-12-18T12:40:36;3.10;99.90
7720;DHT22;3902;49.474;8.616;2022-12-18T12:43:43;2.90;99.90
7720;DHT22;3902;49.474;8.616;2022-12-18T12:46:11;2.90;99.90
7720;DHT22;3902;49.474;8.616;2022-12-18T12:48:49;2.70;99.90
7720;DHT22;3902;49.474;8.616;2022-12-18T12:51:33;2.60;99.90
7720;DHT22;3902;49.474;8.616;2022-12-18T12:54:01;2.50;99.90
7720;DHT22;3902;49.474;8.616;2022-12-18T12:56:48;2.40;99.90
7720;DHT22;3902;49.474;8.616;2022-12-18T12:59:19;2.30;99.90
7720;DHT22;3902;49.474;8.616;2022-12-18T13:05:11;2.00;99.90
7720;DHT22;3902;49.474;8.616;2022-12-18T13:07:46;1.90;99.90
7720;DHT22;3902;49.474;8.616;2022-12-18T13:10:36;1.70;99.90
7720;DHT22;3902;49.474;8.616;2022-12-18T13:13:15;1.70;99.90
7720;DHT22;3902;49.474;8.616;2022-12-18T13:18:50;1.40;99.90
7720;DHT22;3902;49.474;8.616;2022-12-18T13:21:37;1.40;99.90
7720;DHT22;3902;49.474;8.616;2022-12-18T13:24:25;1.30;99.90
7720;DHT22;3902;49.474;8.616;2022-12-18T13:26:51;1.20;99.90
7720;DHT22;3902;49.474;8.616;2022-12-18T13:29:45;1.20;99.90
7720;DHT22;3902;49.474;8.616;2022-12-18T13:32:22;1.10;99.90
7720;DHT22;3902;49.474;8.616;2022-12-18T13:34:51;1.00;99.90
7720;DHT22;3902;49.474;8.616;2022-12-18T13:37:43;1.00;99.90
7720;DHT22;3902;49.474;8.616;2022-12-18T13:51:35;0.90;99.90
7720;DHT22;3902;49.474;8.616;2022-12-18T13:56:43;0.80;99.90
7720;DHT22;3902;49.474;8.616;2022-12-18T13:59:16;0.80;99.90
7720;DHT22;3902;49.474;8.616;2022-12-18T14:01:44;0.80;99.90
7720;DHT22;3902;49.474;8.616;2022-12-18T14:04:45;0.70;99.90
7720;DHT22;3902;49.474;8.616;2022-12-18T14:09:43;0.70;99.90
7720;DHT22;3902;49.474;8.616;2022-12-18T14:12:24;0.70;99.90
7720;DHT22;3902;49.474;8.616;2022-12-18T14:15:39;0.60;99.90
7720;DHT22;3902;49.474;8.616;2022-12-18T14:20:50;0.50;99.90
7720;DHT22;3902;49.474;8.616;2022-12-18T14:23:41;0.50;99.90
7720;DHT22;3902;49.474;8.616;2022-12-18T14:26:39;0.40;99.90
7720;DHT22;3902;49.474;8.616;2022-12-18T14:29:28;0.40;99.90
7720;DHT22;3902;49.474;8.616;2022-12-18T14:32:07;0.30;99.90
7720;DHT22;3902;49.474;8.616;2022-12-18T14:34:34;0.30;99.90
7720;DHT22;3902;49.474;8.616;2022-12-18T14:37:00;0.20;99.90
7720;DHT22;3902;49.474;8.616;2022-12-18T14:39:25;0.10;99.90
7720;DHT22;3902;49.474;8.616;2022-12-18T14:41:51;0.00;99.90
7720;DHT22;3902;49.474;8.616;2022-12-18T14:44:17;-0.10;99.90
7720;DHT22;3902;49.474;8.616;2022-12-18T14:46:44;-0.10;99.90
7720;DHT22;3902;49.474;8.616;2022-12-18T14:49:31;-0.10;99.90
7720;DHT22;3902;49.474;8.616;2022-12-18T14:52:06;-0.20;99.90
7720;DHT22;3902;49.474;8.616;2022-12-18T14:54:33;-0.30;99.90
7720;DHT22;3902;49.474;8.616;2022-12-18T14:57:20;-0.40;99.90
7720;DHT22;3902;49.474;8.616;2022-12-18T14:59:46;-0.40;99.90
7720;DHT22;3902;49.474;8.616;2022-12-18T15:02:25;-0.30;99.90
7720;DHT22;3902;49.474;8.616;2022-12-18T15:05:04;-0.40;99.90
7720;DHT22;3902;49.474;8.616;2022-12-18T15:07:44;-0.50;99.90
7720;DHT22;3902;49.474;8.616;2022-12-18T15:10:16;-0.50;99.90
7720;DHT22;3902;49.474;8.616;2022-12-18T15:12:49;-0.50;99.90
7720;DHT22;3902;49.474;8.616;2022-12-18T15:20:52;-0.60;99.90
7720;DHT22;3902;49.474;8.616;2022-12-18T15:26:06;-0.60;99.90
7720;DHT22;3902;49.474;8.616;2022-12-18T15:33:44;-0.70;99.90
7720;DHT22;3902;49.474;8.616;2022-12-18T15:36:16;-0.70;99.90
7720;DHT22;3902;49.474;8.616;2022-12-18T15:38:49;-0.80;99.90
7720;DHT22;3902;49.474;8.616;2022-12-18T15:41:17;-0.80;99.90
7720;DHT22;3902;49.474;8.616;2022-12-18T15:43:44;-0.80;99.90
7720;DHT22;3902;49.474;8.616;2022-12-18T15:46:21;-0.90;99.90
7720;DHT22;3902;49.474;8.616;2022-12-18T15:48:55;-0.90;99.90
7720;DHT22;3902;49.474;8.616;2022-12-18T15:51:33;-0.90;99.90
7720;DHT22;3902;49.474;8.616;2022-12-18T15:54:01;-0.90;99.90
7720;DHT22;3902;49.474;8.616;2022-12-18T15:56:29;-1.00;99.90
7720;DHT22;3902;49.474;8.616;2022-12-18T15:59:15;-1.00;99.90
7720;DHT22;3902;49.474;8.616;2022-12-18T16:01:43;-1.00;99.90
7720;DHT22;3902;49.474;8.616;2022-12-18T16:04:12;-1.00;99.90
7720;DHT22;3902;49.474;8.616;2022-12-18T16:06:38;-1.00;99.90
7720;DHT22;3902;49.474;8.616;2022-12-18T16:09:04;-1.10;99.90
7720;DHT22;3902;49.474;8.616;2022-12-18T16:11:31;-1.10;99.90
7720;DHT22;3902;49.474;8.616;2022-12-18T16:14:20;-1.10;99.90
7720;DHT22;3902;49.474;8.616;2022-12-18T16:16:50;-1.10;99.90
7720;DHT22;3902;49.474;8.616;2022-12-18T16:19:16;-1.10;99.90
7720;DHT22;3902;49.474;8.616;2022-12-18T16:21:42;-1.10;99.90
7720;DHT22;3902;49.474;8.616;2022-12-18T16:24:16;-1.10;99.90
7720;DHT22;3902;49.474;8.616;2022-12-18T16:26:42;-1.10;99.90
7720;DHT22;3902;49.474;8.616;2022-12-18T16:29:09;-1.10;99.90
7720;DHT22;3902;49.474;8.616;2022-12-18T16:31:34;-1.10;99.90
7720;DHT22;3902;49.474;8.616;2022-12-18T16:37:06;-1.10;99.90
7720;DHT22;3902;49.474;8.616;2022-12-18T16:39:33;-1.10;99.90
7720;DHT22;3902;49.474;8.616;2022-12-18T16:42:00;-1.10;99.90
7720;DHT22;3902;49.474;8.616;2022-12-18T16:44:26;-1.10;99.90
7720;DHT22;3902;49.474;8.616;2022-12-18T16:46:52;-1.10;99.90
7720;DHT22;3902;49.474;8.616;2022-12-18T16:49:18;-1.10;99.90
7720;DHT22;3902;49.474;8.616;2022-12-18T16:51:45;-1.10;99.90
7720;DHT22;3902;49.474;8.616;2022-12-18T16:54:11;-1.20;99.90
7720;DHT22;3902;49.474;8.616;2022-12-18T16:56:37;-1.10;99.90
7720;DHT22;3902;49.474;8.616;2022-12-18T16:59:04;-1.10;99.90
7720;DHT22;3902;49.474;8.616;2022-12-18T17:01:31;-1.10;99.90
7720;DHT22;3902;49.474;8.616;2022-12-18T17:03:59;-1.20;99.90
7720;DHT22;3902;49.474;8.616;2022-12-18T17:06:27;-1.20;99.90
7720;DHT22;3902;49.474;8.616;2022-12-18T17:09:03;-1.20;99.90
7720;DHT22;3902;49.474;8.616;2022-12-18T17:11:31;-1.20;99.90
7720;DHT22;3902;49.474;8.616;2022-12-18T17:13:57;-1.10;99.90
7720;DHT22;3902;49.474;8.616;2022-12-18T17:16:23;-1.10;99.90
7720;DHT22;3902;49.474;8.616;2022-12-18T17:18:49;-1.10;99.90
7720;DHT22;3902;49.474;8.616;2022-12-18T17:21:16;-1.10;99.90
7720;DHT22;3902;49.474;8.616;2022-12-18T17:23:43;-1.10;99.90
7720;DHT22;3902;49.474;8.616;2022-12-18T17:26:10;-1.10;99.90
7720;DHT22;3902;49.474;8.616;2022-12-18T17:28:37;-1.10;99.90
7720;DHT22;3902;49.474;8.616;2022-12-18T17:31:16;-1.10;99.90
7720;DHT22;3902;49.474;8.616;2022-12-18T17:33:42;-1.10;99.90
7720;DHT22;3902;49.474;8.616;2022-12-18T17:36:08;-1.10;99.90
7720;DHT22;3902;49.474;8.616;2022-12-18T17:38:35;-1.10;99.90
7720;DHT22;3902;49.474;8.616;2022-12-18T17:41:02;-1.10;99.90
7720;DHT22;3902;49.474;8.616;2022-12-18T17:43:28;-1.10;99.90
7720;DHT22;3902;49.474;8.616;2022-12-18T17:45:54;-1.20;99.90
7720;DHT22;3902;49.474;8.616;2022-12-18T17:48:20;-1.10;99.90
7720;DHT22;3902;49.474;8.616;2022-12-18T17:50:45;-1.20;99.90
7720;DHT22;3902;49.474;8.616;2022-12-18T17:53:11;-1.20;99.90
7720;DHT22;3902;49.474;8.616;2022-12-18T17:55:36;-1.20;99.90
7720;DHT22;3902;49.474;8.616;2022-12-18T17:58:02;-1.20;99.90
7720;DHT22;3902;49.474;8.616;2022-12-18T18:00:28;-1.20;99.90
7720;DHT22;3902;49.474;8.616;2022-12-18T18:02:53;-1.20;99.90
7720;DHT22;3902;49.474;8.616;2022-12-18T18:05:19;-1.20;99.90
7720;DHT22;3902;49.474;8.616;2022-12-18T18:07:45;-1.20;99.90